Time;durP1;ratioP1;P1;durP2;ratioP2;P2;SDS_P1;SDS_P2;PMS_P1;PMS_P2;Temp;Humidity;BMP_temperature;BMP_pressure;BME280_temperature;BME280_humidity;BME280_pressure;Samples;Min_cycle;Max_cycle;Signal;HPM_P1;HPM_P2
2022/10/20 00:01:35;;;;;;;17.25;9.18;;;;;;;;;;5306947;27;19997;-78
2022/10/20 00:04:28;;;;;;;18.10;9.70;;;;;;;;;;5326864;27;20047;-78
2022/10/20 00:07:11;;;;;;;12.20;8.68;;;;;;;;;;5320040;27;20421;-78
2022/10/20 00:09:38;;;;;;;20.85;9.27;;;;;;;;;;5307292;27;20295;-78
2022/10/20 00:21:43;;;;;;;16.73;10.35;;;;;;;;;;5326170;27;20026;-78
2022/10/20 00:24:21;;;;;;;;;;;;;;;;;;;;;
2022/10/20 00:29:58;;;;;;;16.37;10.18;;;;;;;;;;5285765;27;20015;-78
2022/10/20 00:35:45;;;;;;;;;;;;;;;;;;;;;
2022/10/20 00:38:30;;;;;;;23.00;10.93;;;;;;;;;;5326362;26;20027;-78
2022/10/20 00:41:14;;;;;;;;;;;;;;;;;;;;;
2022/10/20 00:49:58;;;;;;;15.63;11.63;;;;;;;;;;5257917;27;20009;-78
2022/10/20 00:52:47;;;;;;;19.27;11.43;;;;;;;;;;5258329;27;20006;-77
2022/10/20 00:58:19;;;;;;;21.52;12.55;;;;;;;;;;5236667;27;20107;-77
2022/10/20 01:00:55;;;;;;;15.45;12.20;;;;;;;;;;5239738;27;20020;-78
2022/10/20 01:03:45;;;;;;;15.30;10.88;;;;;;;;;;5266685;27;20402;-78
2022/10/20 01:12:36;;;;;;;16.45;12.00;;;;;;;;;;5258571;27;20071;-78
2022/10/20 01:28:03;;;;;;;22.35;13.20;;;;;;;;;;5154356;27;20010;-77
2022/10/20 01:30:31;;;;;;;20.35;12.15;;;;;;;;;;5145333;27;20023;-77
2022/10/20 01:36:09;;;;;;;21.50;11.88;;;;;;;;;;5305749;27;20008;-78
2022/10/20 01:38:39;;;;;;;17.10;12.25;;;;;;;;;;5305780;27;20065;-77
2022/10/20 01:41:36;;;;;;;;;;;;;;;;;;;;;
2022/10/20 02:09:34;;;;;;;;;;;;;;;;;;;;;
2022/10/20 02:18:46;;;;;;;22.00;15.10;;;;;;;;;;5195245;27;20021;-77
2022/10/20 02:24:42;;;;;;;22.42;14.77;;;;;;;;;;5207626;27;20012;-77
2022/10/20 02:27:23;;;;;;;;;;;;;;;;;;;;;
2022/10/20 02:29:54;;;;;;;23.62;13.68;;;;;;;;;;5321475;27;20020;-77
2022/10/20 02:32:21;;;;;;;20.27;14.90;;;;;;;;;;5326649;27;20444;-77
2022/10/20 02:38:15;;;;;;;;;;;;;;;;;;;;;
2022/10/20 02:41:19;;;;;;;;;;;;;;;;;;;;;
2022/10/20 02:44:22;;;;;;;23.48;15.73;;;;;;;;;;5280815;27;19998;-77
2022/10/20 02:50:23;;;;;;;23.42;16.05;;;;;;;;;;5280868;27;19993;-78
2022/10/20 02:53:02;;;;;;;;;;;;;;;;;;;;;
2022/10/20 02:55:28;;;;;;;21.10;15.32;;;;;;;;;;5306937;27;20041;-78
2022/10/20 02:57:53;;;;;;;;;;;;;;;;;;5327020;27;20026;-78
2022/10/20 03:00:30;;;;;;;27.75;17.08;;;;;;;;;;5326759;27;19924;-77
2022/10/20 03:02:56;;;;;;;22.67;16.40;;;;;;;;;;5327717;27;19989;-77
2022/10/20 03:05:31;;;;;;;;;;;;;;;;;;5327770;27;20001;-77
2022/10/20 03:08:18;;;;;;;26.33;17.35;;;;;;;;;;5326665;27;19938;-77
2022/10/20 03:13:50;;;;;;;25.12;17.77;;;;;;;;;;5327632;27;20023;-77
2022/10/20 03:16:18;;;;;;;29.23;18.65;;;;;;;;;;5327452;26;19993;-78
2022/10/20 03:25:07;;;;;;;30.55;18.35;;;;;;;;;;5236005;27;20013;-77
2022/10/20 03:28:00;;;;;;;27.92;19.52;;;;;;;;;;5237203;27;20373;-77
2022/10/20 03:30:51;;;;;;;;;;;;;;;;;;;;;
2022/10/20 03:37:05;;;;;;;30.45;19.87;;;;;;;;;;5195247;27;20040;-77
2022/10/20 03:39:52;;;;;;;26.17;18.48;;;;;;;;;;5200522;27;20006;-77
2022/10/20 03:45:24;;;;;;;31.65;19.35;;;;;;;;;;5154088;27;20007;-77
2022/10/20 03:47:49;;;;;;;;;;;;;;;;;;5237582;27;20006;-77
2022/10/20 03:57:08;;;;;;;28.85;18.90;;;;;;;;;;5301906;27;20040;-77
2022/10/20 04:06:26;;;;;;;34.63;19.92;;;;;;;;;;5216209;27;19997;-77
2022/10/20 04:26:58;;;;;;;33.53;22.13;;;;;;;;;;5198953;27;20439;-77
2022/10/20 04:33:06;;;;;;;25.45;19.80;;;;;;;;;;5215839;27;20438;-77
2022/10/20 04:45:27;;;;;;;32.85;22.20;;;;;;;;;;5215633;27;20026;-77
2022/10/20 04:51:05;;;;;;;32.65;22.42;;;;;;;;;;5326129;27;20000;-77
2022/10/20 05:03:24;;;;;;;;;;;;;;;;;;;;;
2022/10/20 05:05:52;;;;;;;31.20;22.55;;;;;;;;;;5238363;27;20442;-77
2022/10/20 05:11:48;;;;;;;28.98;21.37;;;;;;;;;;5259673;27;20021;-76
2022/10/20 05:17:42;;;;;;;35.67;23.00;;;;;;;;;;5196191;27;20045;-77
2022/10/20 05:20:13;;;;;;;28.58;20.27;;;;;;;;;;5196034;27;20019;-77
2022/10/20 05:35:01;;;;;;;34.85;21.25;;;;;;;;;;5153999;27;20007;-78
2022/10/20 05:44:01;;;;;;;32.15;21.60;;;;;;;;;;5306465;27;19995;-78
2022/10/20 05:46:37;;;;;;;29.92;20.42;;;;;;;;;;5286764;27;20070;-78
2022/10/20 05:49:23;;;;;;;27.73;19.40;;;;;;;;;;5285318;27;20001;-78
2022/10/20 05:51:50;;;;;;;30.42;20.23;;;;;;;;;;5304819;27;20039;-78
2022/10/20 05:54:16;;;;;;;33.60;21.95;;;;;;;;;;5305376;27;20001;-78
2022/10/20 05:56:41;;;;;;;;;;;;;;;;;;5286212;27;20007;-78
2022/10/20 05:59:28;;;;;;;32.50;22.33;;;;;;;;;;5306170;27;19932;-78
2022/10/20 06:02:32;;;;;;;32.35;22.30;;;;;;;;;;5285418;27;20387;-78
2022/10/20 06:04:51;;;;;;;32.88;22.13;;;;;;;;;;5301019;27;20037;-79
2022/10/20 06:07:48;;;;;;;;;;;;;;;;;;;;;
2022/10/20 06:10:13;;;;;;;31.77;21.73;;;;;;;;;;5304234;27;20016;-78
2022/10/20 06:12:39;;;;;;;;;;;;;;;;;;5304518;27;20013;-78
2022/10/20 06:15:10;;;;;;;38.30;23.50;;;;;;;;;;5303851;27;19935;-78
2022/10/20 06:17:36;;;;;;;33.58;21.40;;;;;;;;;;5284702;27;20304;-79
2022/10/20 06:20:01;;;;;;;;;;;;;;;;;;5303694;27;20080;-79
2022/10/20 06:22:46;;;;;;;33.10;21.83;;;;;;;;;;5302507;27;19946;-79
2022/10/20 06:28:46;;;;;;;;;;;;;;;;;;;;;
2022/10/20 06:34:33;;;;;;;34.50;22.23;;;;;;;;;;5328317;27;19988;-78
2022/10/20 06:37:16;;;;;;;29.83;22.00;;;;;;;;;;5307084;27;20322;-79
2022/10/20 06:49:22;;;;;;;29.00;21.55;;;;;;;;;;5237302;27;20045;-78
2022/10/20 06:55:05;;;;;;;30.10;22.10;;;;;;;;;;5237393;27;20008;-77
2022/10/20 06:57:41;;;;;;;;;;;;;;;;;;;;;
2022/10/20 07:00:15;;;;;;;30.45;22.85;;;;;;;;;;5277161;27;20008;-78
2022/10/20 07:12:20;;;;;;;;;;;;;;;;;;;;;
2022/10/20 07:14:55;;;;;;;27.10;20.00;;;;;;;;;;5194627;27;20015;-78
2022/10/20 07:17:23;;;;;;;34.72;22.83;;;;;;;;;;5177259;27;19998;-78
2022/10/20 07:26:31;;;;;;;32.95;20.88;;;;;;;;;;5112049;28;20003;-78
2022/10/20 07:32:33;;;;;;;27.52;19.35;;;;;;;;;;5159036;27;20055;-78
2022/10/20 07:44:19;;;;;;;25.45;19.98;;;;;;;;;;5236855;27;20028;-78
2022/10/20 07:47:26;;;;;;;26.92;20.08;;;;;;;;;;5236733;27;20340;-78
2022/10/20 07:49:50;;;;;;;29.50;18.67;;;;;;;;;;5236172;27;20377;-78
2022/10/20 07:52:15;;;;;;;;;;;;;;;;;;5218946;27;20002;-77
2022/10/20 07:54:52;;;;;;;29.00;20.15;;;;;;;;;;5236153;27;20252;-77
2022/10/20 08:00:27;;;;;;;25.98;19.55;;;;;;;;;;5327084;27;20003;-77
2022/10/20 08:03:28;;;;;;;27.25;20.85;;;;;;;;;;5326351;27;20296;-77
2022/10/20 08:06:05;;;;;;;27.15;21.00;;;;;;;;;;5292099;27;20000;-77
2022/10/20 08:11:47;;;;;;;30.65;19.95;;;;;;;;;;5326577;27;19996;-78
2022/10/20 08:14:14;;;;;;;30.08;20.35;;;;;;;;;;5326079;27;20028;-78
2022/10/20 08:17:24;;;;;;;;;;;;;;;;;;;;;
2022/10/20 08:26:18;;;;;;;30.02;20.67;;;;;;;;;;5258748;27;20024;-78
2022/10/20 08:28:50;;;;;;;27.58;19.40;;;;;;;;;;5323778;27;20031;-79
2022/10/20 08:31:29;;;;;;;31.50;21.37;;;;;;;;;;5325564;27;20020;-79
2022/10/20 08:43:34;;;;;;;28.70;19.73;;;;;;;;;;5152279;27;20402;-79
2022/10/20 08:46:31;;;;;;;33.08;21.58;;;;;;;;;;5151925;27;20019;-79
2022/10/20 08:49:29;;;;;;;28.05;20.20;;;;;;;;;;5232192;27;20009;-79
2022/10/20 08:51:54;;;;;;;;;;;;;;;;;;5258658;27;20395;-79
2022/10/20 08:57:21;;;;;;;30.92;20.95;;;;;;;;;;5310013;27;20044;-78
2022/10/20 09:00:07;;;;;;;;;;;;;;;;;;;;;
2022/10/20 09:03:19;;;;;;;26.98;20.35;;;;;;;;;;5326556;26;20395;-79
2022/10/20 09:05:30;;;;;;;26.08;19.40;;;;;;;;;;5314921;27;20032;-78
2022/10/20 09:07:59;;;;;;;25.60;18.70;;;;;;;;;;5327547;27;19999;-78
2022/10/20 09:10:45;;;;;;;28.05;19.67;;;;;;;;;;5325501;27;20001;-78
2022/10/20 09:13:19;;;;;;;34.42;18.95;;;;;;;;;;5306022;27;20003;-78
2022/10/20 09:16:09;;;;;;;;;;;;;;;;;;;;;
2022/10/20 09:18:35;;;;;;;27.23;19.95;;;;;;;;;;5325973;26;20032;-78
2022/10/20 09:21:03;;;;;;;23.95;18.17;;;;;;;;;;5306133;27;19993;-78
2022/10/20 09:23:39;;;;;;;28.92;18.87;;;;;;;;;;5326528;27;20050;-78
2022/10/20 09:26:15;;;;;;;33.28;21.67;;;;;;;;;;5327090;27;19992;-78
2022/10/20 09:28:56;;;;;;;28.08;19.92;;;;;;;;;;5326371;27;20039;-78
2022/10/20 09:31:37;;;;;;;24.58;19.65;;;;;;;;;;5326645;27;20070;-78
2022/10/20 09:34:25;;;;;;;27.60;20.90;;;;;;;;;;5330010;27;20015;-78
2022/10/20 09:41:17;;;;;;;;;;;;;;;;;;;;;
2022/10/20 09:56:40;;;;;;;24.33;18.30;;;;;;;;;;5112336;28;20044;-78
2022/10/20 10:02:35;;;;;;;24.35;19.45;;;;;;;;;;5153872;27;20448;-77
2022/10/20 10:08:36;;;;;;;31.15;18.08;;;;;;;;;;5143980;27;20453;-78
2022/10/20 10:26:38;;;;;;;28.90;22.05;;;;;;;;;;5237498;27;20005;-78
2022/10/20 10:32:25;;;;;;;28.90;22.20;;;;;;;;;;5177949;27;20465;-77
2022/10/20 10:35:38;;;;;;;;;;;;;;;;;;;;;
2022/10/20 10:44:38;;;;;;;28.95;20.98;;;;;;;;;;5236788;27;20005;-78
2022/10/20 10:53:32;;;;;;;28.45;22.40;;;;;;;;;;5214557;27;20077;-79
2022/10/20 11:02:13;;;;;;;42.45;24.80;;;;;;;;;;5258707;27;20048;-79
2022/10/20 11:04:41;;;;;;;32.90;23.05;;;;;;;;;;5290641;27;20039;-78
2022/10/20 11:10:38;;;;;;;33.40;23.85;;;;;;;;;;5276186;27;20065;-79
2022/10/20 11:13:45;;;;;;;30.45;23.87;;;;;;;;;;5261763;27;20028;-79
2022/10/20 11:16:30;;;;;;;31.30;23.12;;;;;;;;;;5193761;27;20025;-79
2022/10/20 11:19:06;;;;;;;35.88;25.17;;;;;;;;;;5194787;27;20378;-79
2022/10/20 11:21:39;;;;;;;36.30;23.95;;;;;;;;;;5259758;27;20406;-79
2022/10/20 11:24:28;;;;;;;30.08;23.10;;;;;;;;;;5280120;27;19997;-79
2022/10/20 11:27:10;;;;;;;;;;;;;;;;;;;;;
2022/10/20 11:29:44;;;;;;;34.22;22.67;;;;;;;;;;5272493;27;20009;-79
2022/10/20 11:32:18;;;;;;;27.13;22.00;;;;;;;;;;5281018;27;20378;-79
2022/10/20 11:35:00;;;;;;;30.55;20.83;;;;;;;;;;5302487;27;19996;-78
2022/10/20 11:37:37;;;;;;;30.17;22.13;;;;;;;;;;5306983;27;20101;-79
2022/10/20 11:40:21;;;;;;;31.35;20.02;;;;;;;;;;5326690;27;20371;-79
2022/10/20 11:43:05;;;;;;;29.12;20.23;;;;;;;;;;5327394;27;19992;-78
2022/10/20 11:46:03;;;;;;;25.75;20.88;;;;;;;;;;5326266;27;20395;-78
2022/10/20 11:48:30;;;;;;;26.42;20.27;;;;;;;;;;5270191;27;20377;-79
2022/10/20 11:51:15;;;;;;;27.13;20.98;;;;;;;;;;5306677;27;20048;-79
2022/10/20 11:53:53;;;;;;;28.48;21.25;;;;;;;;;;5325846;27;20303;-79
2022/10/20 11:59:59;;;;;;;31.02;21.92;;;;;;;;;;5258175;27;20046;-78
2022/10/20 12:02:46;;;;;;;29.42;22.13;;;;;;;;;;5258165;27;20012;-78
2022/10/20 12:05:20;;;;;;;;;;;;;;;;;;5258264;27;20335;-78
2022/10/20 12:08:30;;;;;;;;;;;;;;;;;;;;;
2022/10/20 12:27:35;;;;;;;;;;;;;;;;;;;;;
2022/10/20 12:36:27;;;;;;;40.95;28.92;;;;;;;;;;5070862;28;20436;-80
2022/10/20 12:51:53;;;;;;;54.67;34.10;;;;;;;;;;5031238;28;20023;-80
2022/10/20 12:57:31;;;;;;;48.25;32.03;;;;;;;;;;5093752;28;20132;-79
2022/10/20 12:59:56;;;;;;;41.53;28.80;;;;;;;;;;5178360;27;20019;-80
2022/10/20 13:02:24;;;;;;;43.92;30.65;;;;;;;;;;5243174;27;20001;-79
2022/10/20 13:04:59;;;;;;;40.72;30.85;;;;;;;;;;5304050;27;20005;-80
2022/10/20 13:13:38;;;;;;;35.20;27.85;;;;;;;;;;5297577;27;20047;-80
2022/10/20 13:25:53;;;;;;;36.63;26.50;;;;;;;;;;5306058;27;19995;-81
2022/10/20 13:28:43;;;;;;;27.40;21.05;;;;;;;;;;5237956;27;20061;-81
2022/10/20 13:34:47;;;;;;;21.00;14.20;;;;;;;;;;5252659;27;20032;-81
2022/10/20 13:37:48;;;;;;;18.60;14.20;;;;;;;;;;5258093;27;20023;-81
2022/10/20 13:40:51;;;;;;;23.58;13.60;;;;;;;;;;5292613;27;20016;-81
2022/10/20 13:43:28;;;;;;;24.08;15.52;;;;;;;;;;5303143;27;20315;-81
2022/10/20 13:46:09;;;;;;;18.45;13.80;;;;;;;;;;5283955;27;20051;-80
2022/10/20 13:52:10;;;;;;;14.98;11.20;;;;;;;;;;5305103;27;20418;-80
2022/10/20 13:54:43;;;;;;;17.42;14.20;;;;;;;;;;5285233;27;20020;-80
2022/10/20 13:57:38;;;;;;;19.55;14.93;;;;;;;;;;5304687;27;20032;-80
2022/10/20 14:00:31;;;;;;;17.10;14.10;;;;;;;;;;5285279;27;20006;-79
2022/10/20 14:06:13;;;;;;;21.60;16.08;;;;;;;;;;5289422;27;20001;-80
2022/10/20 14:08:56;;;;;;;21.37;15.52;;;;;;;;;;5302688;27;20028;-79
2022/10/20 14:11:22;;;;;;;19.45;15.38;;;;;;;;;;5304623;27;20318;-80
2022/10/20 14:14:14;;;;;;;23.55;18.55;;;;;;;;;;5285700;27;20007;-80
2022/10/20 14:19:58;;;;;;;22.80;17.37;;;;;;;;;;5301234;27;20037;-80
2022/10/20 14:22:53;;;;;;;26.45;18.15;;;;;;;;;;5305866;27;19993;-80
2022/10/20 14:25:32;;;;;;;;;;;;;;;;;;;;;
2022/10/20 14:28:36;;;;;;;;;;;;;;;;;;;;;
2022/10/20 14:34:33;;;;;;;;;;;;;;;;;;;;;
2022/10/20 14:37:05;;;;;;;26.17;17.67;;;;;;;;;;5303997;27;20041;-80
2022/10/20 14:39:39;;;;;;;22.13;16.62;;;;;;;;;;5304606;27;20024;-80
2022/10/20 14:45:26;;;;;;;30.08;21.55;;;;;;;;;;5304783;27;20023;-80
2022/10/20 14:48:01;;;;;;;32.13;20.70;;;;;;;;;;5304069;27;20082;-80
2022/10/20 14:50:29;;;;;;;28.42;19.12;;;;;;;;;;5305172;27;19986;-80
2022/10/20 14:52:55;;;;;;;22.90;19.55;;;;;;;;;;5304153;27;20008;-80
2022/10/20 14:55:49;;;;;;;;;;;;;;;;;;;;;
2022/10/20 14:58:33;;;;;;;27.27;20.83;;;;;;;;;;5303867;27;20339;-80
2022/10/20 15:04:02;;;;;;;26.83;19.40;;;;;;;;;;5304519;27;20407;-80
2022/10/20 15:06:27;;;;;;;26.67;19.12;;;;;;;;;;5305123;27;20035;-79
2022/10/20 15:08:56;;;;;;;34.03;20.10;;;;;;;;;;5304056;27;20023;-80
2022/10/20 15:11:30;;;;;;;30.65;19.40;;;;;;;;;;5304186;27;20005;-80
2022/10/20 15:13:57;;;;;;;23.90;17.52;;;;;;;;;;5304248;27;20004;-80
2022/10/20 15:16:41;;;;;;;29.35;18.83;;;;;;;;;;5283953;27;20020;-80
2022/10/20 15:25:30;;;;;;;22.55;18.20;;;;;;;;;;5188946;27;20354;-80
2022/10/20 15:27:59;;;;;;;26.90;17.98;;;;;;;;;;5188439;27;20002;-80
2022/10/20 15:30:33;;;;;;;25.67;18.00;;;;;;;;;;5194027;27;20012;-80
2022/10/20 15:33:26;;;;;;;21.20;16.95;;;;;;;;;;5241644;27;20048;-81
2022/10/20 15:35:52;;;;;;;22.92;17.12;;;;;;;;;;5325819;27;20023;-81
2022/10/20 15:44:48;;;;;;;24.83;17.75;;;;;;;;;;5259127;27;20009;-82
2022/10/20 15:47:16;;;;;;;22.67;18.02;;;;;;;;;;5259116;27;20006;-84
2022/10/20 15:52:46;;;;;;;26.35;19.08;;;;;;;;;;5215773;27;20439;-78
2022/10/20 15:55:31;;;;;;;22.60;17.15;;;;;;;;;;5238308;27;20010;-79
2022/10/20 16:01:19;;;;;;;26.35;17.30;;;;;;;;;;5303062;27;20022;-78
2022/10/20 16:03:45;;;;;;;29.95;19.42;;;;;;;;;;5306231;27;20023;-78
2022/10/20 16:06:23;;;;;;;;;;;;;;;;;;;;;
2022/10/20 16:08:53;;;;;;;27.77;19.67;;;;;;;;;;5325500;27;20059;-78
2022/10/20 16:11:19;;;;;;;24.35;18.83;;;;;;;;;;5324930;27;20015;-78
2022/10/20 16:13:44;;;;;;;30.27;21.35;;;;;;;;;;5325646;27;20322;-78
2022/10/20 16:16:12;;;;;;;45.12;27.27;;;;;;;;;;5325564;27;20046;-78
2022/10/20 16:18:58;;;;;;;;;;;;;;;;;;;;;
2022/10/20 16:21:41;;;;;;;38.38;24.23;;;;;;;;;;5327044;27;20009;-78
2022/10/20 16:27:17;;;;;;;27.42;22.10;;;;;;;;;;5257406;27;20008;-78
2022/10/20 16:29:43;;;;;;;34.80;23.25;;;;;;;;;;5325007;27;20023;-78
2022/10/20 16:35:04;;;;;;;32.35;24.67;;;;;;;;;;5325522;26;20039;-75
2022/10/20 16:49:57;;;;;;;45.85;26.00;;;;;;;;;;5269809;27;20004;-78
2022/10/20 16:52:23;;;;;;;39.17;25.05;;;;;;;;;;5326119;27;20003;-78
2022/10/20 16:54:48;;;;;;;38.90;27.00;;;;;;;;;;5326467;27;20037;-78
2022/10/20 16:57:16;;;;;;;35.13;26.55;;;;;;;;;;5326272;27;20015;-78
2022/10/20 16:59:53;;;;;;;42.47;27.48;;;;;;;;;;5326143;27;20017;-78
2022/10/20 17:02:18;;;;;;;38.97;29.20;;;;;;;;;;5327159;27;19993;-78
2022/10/20 17:04:48;;;;;;;37.65;26.50;;;;;;;;;;5325716;27;20015;-78
2022/10/20 17:07:24;;;;;;;43.75;30.75;;;;;;;;;;5326388;27;20001;-78
2022/10/20 17:09:49;;;;;;;40.80;28.05;;;;;;;;;;5327891;27;20023;-78
2022/10/20 17:12:33;;;;;;;48.20;29.73;;;;;;;;;;5325633;27;20322;-77
2022/10/20 17:18:14;;;;;;;45.53;30.12;;;;;;;;;;5258334;27;20012;-78
2022/10/20 17:20:39;;;;;;;50.58;32.40;;;;;;;;;;5259603;27;20017;-78
2022/10/20 17:23:05;;;;;;;50.58;35.50;;;;;;;;;;5305246;27;20042;-78
2022/10/20 17:25:31;;;;;;;49.92;34.45;;;;;;;;;;5325475;27;20023;-78
2022/10/20 17:28:00;;;;;;;54.53;35.10;;;;;;;;;;5325466;27;20066;-78
2022/10/20 17:30:26;;;;;;;54.40;37.17;;;;;;;;;;5325661;27;20020;-78
2022/10/20 17:32:51;;;;;;;53.90;36.33;;;;;;;;;;5326249;27;20015;-78
2022/10/20 17:35:16;;;;;;;52.47;35.70;;;;;;;;;;5325351;27;20046;-78
2022/10/20 17:37:44;;;;;;;48.75;33.28;;;;;;;;;;5306034;27;20010;-78
2022/10/20 17:40:09;;;;;;;52.95;35.92;;;;;;;;;;5325697;27;20032;-78
2022/10/20 17:42:53;;;;;;;44.85;33.90;;;;;;;;;;5325805;27;20344;-78
2022/10/20 17:45:18;;;;;;;48.33;32.60;;;;;;;;;;5327518;27;19997;-78
2022/10/20 17:47:44;;;;;;;54.70;36.63;;;;;;;;;;5325439;27;20339;-78
2022/10/20 17:50:11;;;;;;;47.35;32.38;;;;;;;;;;5326621;27;20001;-78
2022/10/20 17:52:37;;;;;;;48.65;35.08;;;;;;;;;;5325716;27;20005;-78
2022/10/20 17:55:15;;;;;;;61.08;38.50;;;;;;;;;;5326036;27;20016;-78
2022/10/20 17:57:59;;;;;;;56.60;36.85;;;;;;;;;;5292335;27;20019;-78
2022/10/20 18:21:57;;;;;;;57.88;37.15;;;;;;;;;;5195655;27;20394;-78
2022/10/20 18:24:32;;;;;;;;;;;;;;;;;;;;;
2022/10/20 18:30:23;;;;;;;58.55;37.03;;;;;;;;;;5195119;27;20072;-78
2022/10/20 18:33:00;;;;;;;47.00;32.00;;;;;;;;;;5195475;27;20027;-79
2022/10/20 18:38:16;;;;;;;49.53;35.22;;;;;;;;;;5326531;26;20031;-78
2022/10/20 18:45:01;;;;;;;47.15;33.90;;;;;;;;;;5259111;27;20044;-78
2022/10/20 18:47:43;;;;;;;53.95;33.97;;;;;;;;;;5241999;27;20356;-79
2022/10/20 18:50:46;;;;;;;54.63;36.67;;;;;;;;;;5256184;27;20196;-78
2022/10/20 18:56:44;;;;;;;;;;;;;;;;;;;;;
2022/10/20 19:02:29;;;;;;;;;;;;;;;;;;;;;
2022/10/20 19:04:58;;;;;;;47.65;32.45;;;;;;;;;;5130991;27;20023;-79
2022/10/20 19:07:44;;;;;;;66.43;42.42;;;;;;;;;;5189498;27;20013;-78
2022/10/20 19:10:47;;;;;;;;;;;;;;;;;;;;;
2022/10/20 19:13:41;;;;;;;;;;;;;;;;;;;;;
2022/10/20 19:16:43;;;;;;;59.33;40.25;;;;;;;;;;5163748;27;20019;-78
2022/10/20 19:19:24;;;;;;;62.92;41.22;;;;;;;;;;5193897;27;20011;-78
2022/10/20 19:22:04;;;;;;;52.97;35.83;;;;;;;;;;5236259;27;20033;-78
2022/10/20 19:31:01;;;;;;;43.97;33.22;;;;;;;;;;5152486;27;20062;-78
2022/10/20 19:33:50;;;;;;;45.88;31.20;;;;;;;;;;5226442;27;20016;-78
2022/10/20 19:42:55;;;;;;;54.22;35.42;;;;;;;;;;5280619;27;20047;-80
2022/10/20 19:45:40;;;;;;;51.95;37.55;;;;;;;;;;5279793;27;20012;-82
2022/10/20 19:48:28;;;;;;;58.13;37.87;;;;;;;;;;5294421;27;20063;-83
2022/10/20 19:50:59;;;;;;;60.72;39.63;;;;;;;;;;5257101;27;20025;-83
2022/10/20 19:54:22;;;;;;;;;;;;;;;;;;;;;
2022/10/20 19:57:13;;;;;;;61.92;38.83;;;;;;;;;;5255968;27;20018;-80
2022/10/20 19:59:41;;;;;;;59.10;36.92;;;;;;;;;;5251251;27;20014;-80
2022/10/20 20:05:20;;;;;;;49.65;34.30;;;;;;;;;;5215809;27;20049;-81
2022/10/20 20:08:16;;;;;;;50.47;35.63;;;;;;;;;;5239960;27;20016;-81
2022/10/20 20:10:50;;;;;;;47.55;35.38;;;;;;;;;;5236181;27;20025;-81
2022/10/20 20:13:21;;;;;;;43.60;32.30;;;;;;;;;;5258301;27;20004;-80
2022/10/20 20:15:49;;;;;;;47.08;33.50;;;;;;;;;;5258853;27;19998;-80
2022/10/20 20:18:38;;;;;;;46.55;34.38;;;;;;;;;;5257868;27;20043;-80
2022/10/20 20:24:13;;;;;;;50.30;31.73;;;;;;;;;;5263038;27;20008;-80
2022/10/20 20:33:07;;;;;;;47.92;31.67;;;;;;;;;;5280179;27;20005;-80
2022/10/20 20:36:03;;;;;;;46.33;29.92;;;;;;;;;;5279750;27;20304;-81
2022/10/20 20:38:43;;;;;;;51.42;33.15;;;;;;;;;;5307045;27;20020;-80
2022/10/20 20:41:24;;;;;;;54.05;33.70;;;;;;;;;;5326573;27;20012;-80
2022/10/20 20:43:53;;;;;;;51.75;34.88;;;;;;;;;;5327359;27;20005;-80
2022/10/20 20:46:20;;;;;;;42.53;29.08;;;;;;;;;;5326656;27;20024;-80
2022/10/20 20:48:48;;;;;;;36.72;27.00;;;;;;;;;;5327123;27;20008;-80
2022/10/20 20:51:27;;;;;;;52.80;30.90;;;;;;;;;;5307403;27;20009;-80
2022/10/20 20:54:13;;;;;;;49.60;33.45;;;;;;;;;;5326622;27;20296;-80
2022/10/20 20:57:00;;;;;;;45.67;30.52;;;;;;;;;;5325830;27;20038;-80
2022/10/20 20:59:57;;;;;;;49.22;32.63;;;;;;;;;;5328487;27;20005;-80
2022/10/20 21:02:19;;;;;;;49.30;32.78;;;;;;;;;;5335315;27;19998;-80
2022/10/20 21:04:45;;;;;;;46.47;30.37;;;;;;;;;;5317949;27;20007;-80
2022/10/20 21:07:23;;;;;;;50.15;31.65;;;;;;;;;;5318236;27;20001;-80
2022/10/20 21:10:26;;;;;;;57.15;33.97;;;;;;;;;;5338524;27;20042;-80
2022/10/20 21:12:51;;;;;;;56.65;34.80;;;;;;;;;;5312416;27;20016;-79
2022/10/20 21:15:27;;;;;;;47.78;32.30;;;;;;;;;;5327749;27;20001;-80
2022/10/20 21:17:55;;;;;;;51.47;33.53;;;;;;;;;;5327340;27;19997;-81
2022/10/20 21:20:21;;;;;;;42.47;31.20;;;;;;;;;;5326155;27;20001;-80
2022/10/20 21:22:46;;;;;;;51.90;34.60;;;;;;;;;;5306375;27;20042;-80
2022/10/20 21:25:30;;;;;;;52.30;34.17;;;;;;;;;;5326144;27;20005;-80
2022/10/20 21:28:37;;;;;;;52.65;33.53;;;;;;;;;;5327002;27;20048;-80
2022/10/20 21:34:40;;;;;;;53.45;34.13;;;;;;;;;;5260927;27;20073;-80
2022/10/20 21:37:12;;;;;;;59.38;38.60;;;;;;;;;;5280367;27;20016;-80
2022/10/20 21:39:59;;;;;;;57.80;37.35;;;;;;;;;;5328931;26;20078;-80
2022/10/20 21:42:28;;;;;;;61.50;34.58;;;;;;;;;;5309363;27;20310;-81
2022/10/20 21:45:01;;;;;;;58.67;34.72;;;;;;;;;;5309856;27;20001;-81
2022/10/20 21:47:49;;;;;;;62.00;36.67;;;;;;;;;;5307168;27;20000;-81
2022/10/20 21:50:44;;;;;;;63.67;37.17;;;;;;;;;;5320377;27;20004;-80
2022/10/20 21:53:29;;;;;;;42.50;31.58;;;;;;;;;;5308116;27;20043;-81
2022/10/20 21:56:05;;;;;;;41.72;30.25;;;;;;;;;;5328065;27;20021;-80
2022/10/20 21:58:44;;;;;;;40.25;25.85;;;;;;;;;;5328712;27;20306;-80
2022/10/20 22:01:25;;;;;;;49.50;31.42;;;;;;;;;;5328474;27;20065;-80
2022/10/20 22:07:19;;;;;;;47.13;30.15;;;;;;;;;;5260043;27;20359;-80
2022/10/20 22:12:47;;;;;;;45.95;30.33;;;;;;;;;;5253703;27;20388;-80
2022/10/20 22:15:25;;;;;;;43.05;28.35;;;;;;;;;;5260497;27;20009;-80
2022/10/20 22:18:00;;;;;;;50.08;32.67;;;;;;;;;;5260871;27;20013;-80
2022/10/20 22:36:15;;;;;;;49.25;29.92;;;;;;;;;;5195694;27;20018;-80
2022/10/20 22:57:21;;;;;;;45.28;29.30;;;;;;;;;;5071415;28;20018;-80
2022/10/20 22:59:46;;;;;;;49.17;24.95;;;;;;;;;;5100783;28;20456;-80
2022/10/20 23:02:33;;;;;;;52.78;30.60;;;;;;;;;;5175205;27;20001;-80
2022/10/20 23:05:01;;;;;;;43.95;28.35;;;;;;;;;;5327368;27;20334;-80
2022/10/20 23:07:26;;;;;;;45.70;28.90;;;;;;;;;;5326732;27;20000;-80
2022/10/20 23:09:54;;;;;;;43.10;30.12;;;;;;;;;;5326935;27;20322;-80
2022/10/20 23:12:31;;;;;;;52.08;29.00;;;;;;;;;;5326816;27;20032;-81
2022/10/20 23:14:57;;;;;;;36.60;22.35;;;;;;;;;;5307757;27;20353;-81
2022/10/20 23:17:30;;;;;;;42.20;28.30;;;;;;;;;;5326561;27;20004;-81
2022/10/20 23:19:55;;;;;;;39.47;26.70;;;;;;;;;;5307713;27;20341;-80
2022/10/20 23:22:20;;;;;;;42.35;25.52;;;;;;;;;;5326952;27;20030;-80
2022/10/20 23:24:52;;;;;;;35.17;24.42;;;;;;;;;;5327017;27;20000;-80
2022/10/20 23:27:17;;;;;;;39.50;26.83;;;;;;;;;;5327127;27;20328;-80
2022/10/20 23:29:42;;;;;;;35.00;24.37;;;;;;;;;;5326838;27;20000;-80
2022/10/20 23:32:10;;;;;;;40.38;26.83;;;;;;;;;;5306706;27;20395;-80
2022/10/20 23:34:37;;;;;;;29.50;22.55;;;;;;;;;;5327033;27;20004;-80
2022/10/20 23:37:22;;;;;;;;;;;;;;;;;;;;;
2022/10/20 23:39:48;;;;;;;32.75;25.85;;;;;;;;;;5326513;26;20020;-80
2022/10/20 23:42:16;;;;;;;36.50;25.80;;;;;;;;;;5306726;27;20007;-80
2022/10/20 23:44:41;;;;;;;32.05;23.60;;;;;;;;;;5327279;27;20004;-80
2022/10/20 23:47:20;;;;;;;39.85;26.83;;;;;;;;;;5326766;27;20007;-80
2022/10/20 23:49:45;;;;;;;47.65;27.98;;;;;;;;;;5327845;27;20015;-80
2022/10/20 23:52:17;;;;;;;48.47;30.45;;;;;;;;;;5327340;27;20302;-80
2022/10/20 23:54:45;;;;;;;44.63;29.63;;;;;;;;;;5326780;27;19993;-80
2022/10/20 23:57:19;;;;;;;43.53;27.27;;;;;;;;;;5327105;27;20015;-80
2022/10/20 23:59:55;;;;;;;49.88;31.23;;;;;;;;;;5309382;27;19992;-80
